Time;durP1;ratioP1;P1;durP2;ratioP2;P2;SDS_P1;SDS_P2;PMS_P1;PMS_P2;Temp;Humidity;BMP_temperature;BMP_pressure;BME280_temperature;BME280_humidity;BME280_pressure;Samples;Min_cycle;Max_cycle;Signal;HPM_P1;HPM_P2
2022/03/28 00:01:24;;;;;;;43.05;22.42;;;;;;;22.37;80.07;98083.56;4927916;29;20052;-64
2022/03/28 00:04:12;;;;;;;51.60;23.10;;;;;;;22.38;83.03;98082.63;4927709;29;20075;-64
2022/03/28 00:06:54;;;;;;;45.95;21.73;;;;;;;22.35;82.54;98080.25;4928691;29;20087;-64
2022/03/28 00:09:43;;;;;;;47.72;23.80;;;;;;;22.37;81.73;98080.94;4928276;29;20059;-64
2022/03/28 00:12:25;;;;;;;61.97;24.67;;;;;;;22.28;81.32;98087.00;4928441;29;20056;-64
2022/03/28 00:15:14;;;;;;;56.47;23.20;;;;;;;22.38;82.97;98084.41;4928717;29;20086;-63
2022/03/28 00:17:56;;;;;;;47.72;22.85;;;;;;;22.40;83.00;98091.19;4929393;29;20079;-64
2022/03/28 00:20:46;;;;;;;52.90;24.13;;;;;;;22.34;79.85;98097.00;4930085;28;20464;-64
2022/03/28 00:23:34;;;;;;;47.65;24.45;;;;;;;22.31;80.37;98094.63;4927362;29;20047;-63
2022/03/28 00:26:22;;;;;;;56.70;25.95;;;;;;;22.34;79.57;98099.63;4927883;29;20057;-64
2022/03/28 00:29:05;;;;;;;52.53;25.27;;;;;;;22.30;81.02;98090.34;4929440;29;20044;-64
2022/03/28 00:31:54;;;;;;;58.10;25.33;;;;;;;22.27;77.71;98090.59;4933556;29;20154;-64
2022/03/28 00:34:36;;;;;;;56.83;24.05;;;;;;;22.28;80.77;98096.66;4911762;29;20158;-64
2022/03/28 00:37:25;;;;;;;66.80;25.35;;;;;;;22.07;78.31;98099.38;4926644;29;20135;-64
2022/03/28 00:40:09;;;;;;;59.63;25.67;;;;;;;22.15;78.17;98091.66;4929379;29;20507;-64
2022/03/28 00:42:56;;;;;;;52.95;25.27;;;;;;;22.15;79.19;98099.53;4926082;29;20138;-63
2022/03/28 00:45:41;;;;;;;50.80;25.58;;;;;;;22.11;79.93;98104.22;4927165;29;20056;-64
2022/03/28 00:48:30;;;;;;;52.72;23.90;;;;;;;22.16;77.16;98105.63;4929695;29;20054;-64
2022/03/28 00:51:12;;;;;;;62.88;24.52;;;;;;;22.19;79.84;98106.16;4914853;29;20117;-64
2022/03/28 00:54:01;;;;;;;64.72;24.80;;;;;;;22.17;78.42;98109.91;4913577;29;20044;-64
2022/03/28 00:56:46;;;;;;;53.40;24.77;;;;;;;22.17;79.94;98109.91;4927885;29;20047;-65
2022/03/28 00:59:35;;;;;;;56.60;25.80;;;;;;;22.14;80.27;98095.25;4928259;29;20051;-64
2022/03/28 01:02:17;;;;;;;57.20;26.08;;;;;;;22.03;79.15;98105.84;4933630;28;20062;-64
2022/03/28 01:05:06;;;;;;;59.08;26.75;;;;;;;21.91;80.75;98104.22;4945446;29;20051;-64
2022/03/28 01:07:49;;;;;;;62.67;26.23;;;;;;;21.80;81.12;98102.53;4931902;29;20063;-64
2022/03/28 01:10:39;;;;;;;58.83;26.20;;;;;;;21.98;85.15;98111.47;4946863;29;20058;-64
2022/03/28 01:13:23;;;;;;;71.97;29.65;;;;;;;21.98;80.86;98105.41;4929891;29;20994;-64
2022/03/28 01:16:11;;;;;;;73.32;29.23;;;;;;;22.06;82.82;98118.69;4932885;29;20055;-64
2022/03/28 01:18:54;;;;;;;53.65;27.38;;;;;;;22.10;81.76;98120.94;4932933;29;20180;-64
2022/03/28 01:21:48;;;;;;;66.78;27.92;;;;;;;22.08;80.18;98114.16;4951285;28;20050;-65
2022/03/28 01:24:24;;;;;;;64.80;27.17;;;;;;;22.06;81.63;98118.69;4930833;29;20055;-64
2022/03/28 01:27:21;;;;;;;66.47;28.23;;;;;;;22.08;80.57;98124.66;4930634;29;20388;-64
2022/03/28 01:29:57;;;;;;;61.40;28.08;;;;;;;22.06;82.25;98118.69;4941305;29;20123;-64
2022/03/28 01:32:54;;;;;;;61.05;28.98;;;;;;;22.17;85.14;98136.16;4939606;29;20155;-64
2022/03/28 01:35:37;;;;;;;59.42;26.25;;;;;;;22.03;80.37;98134.72;4930026;29;20071;-64
2022/03/28 01:38:31;;;;;;;72.63;27.35;;;;;;;22.35;83.18;98132.75;4915457;29;20051;-64
2022/03/28 01:41:06;;;;;;;64.70;26.95;;;;;;;22.17;81.13;98144.84;4932430;29;20054;-64
2022/03/28 01:43:55;;;;;;;57.08;26.77;;;;;;;22.25;84.48;98150.28;4937447;29;20059;-64
2022/03/28 01:46:36;;;;;;;60.63;26.83;;;;;;;22.37;83.89;98141.31;4937122;29;20055;-64
2022/03/28 01:49:25;;;;;;;65.55;27.23;;;;;;;22.47;80.58;98151.88;4940727;29;20055;-64
2022/03/28 01:52:07;;;;;;;63.00;26.98;;;;;;;22.64;81.89;98147.78;4930723;29;20606;-64
2022/03/28 01:55:02;;;;;;;55.78;27.40;;;;;;;22.87;80.96;98151.84;4929011;29;20118;-64
2022/03/28 01:57:39;;;;;;;53.22;26.48;;;;;;;23.00;80.42;98156.84;4929163;29;20539;-64
2022/03/28 02:00:34;;;;;;;61.90;27.67;;;;;;;22.82;77.01;98161.94;4927059;29;20059;-64
2022/03/28 02:03:10;;;;;;;58.42;24.92;;;;;;;23.00;76.75;98162.09;4926609;29;20547;-64
2022/03/28 02:05:59;;;;;;;55.47;26.15;;;;;;;23.24;78.04;98170.41;4927524;29;20048;-64
2022/03/28 02:08:41;;;;;;;60.35;26.27;;;;;;;23.24;77.48;98175.66;4927509;29;20099;-63
2022/03/28 02:11:36;;;;;;;57.85;25.90;;;;;;;23.39;75.65;98178.72;4930038;29;20059;-63
2022/03/28 02:14:12;;;;;;;59.95;26.58;;;;;;;23.52;74.65;98174.06;4911270;29;20103;-64
2022/03/28 02:17:06;;;;;;;48.88;26.52;;;;;;;23.87;77.57;98182.16;4929901;29;20419;-64
2022/03/28 02:20:05;;;;;;;76.10;26.95;;;;;;;23.91;75.19;98180.91;4914763;28;20050;-64
2022/03/28 02:23:01;;;;;;;76.90;27.88;;;;;;;23.84;76.59;98179.81;4919901;29;20118;-64
2022/03/28 02:25:38;;;;;;;73.38;27.77;;;;;;;23.76;74.77;98179.69;4928441;29;20131;-64
2022/03/28 02:28:28;;;;;;;74.72;29.77;;;;;;;23.94;75.79;98183.28;4928253;29;20073;-63
2022/03/28 02:31:11;;;;;;;75.80;27.65;;;;;;;24.15;73.09;98187.50;4945194;29;20094;-64
2022/03/28 02:34:06;;;;;;;65.68;26.60;;;;;;;24.27;74.52;98184.56;4918538;29;20770;-64
2022/03/28 02:36:42;;;;;;;52.63;26.48;;;;;;;24.47;73.40;98190.59;4929032;29;20047;-64
2022/03/28 02:39:36;;;;;;;71.18;27.45;;;;;;;24.37;72.83;98181.91;4929264;29;20044;-64
2022/03/28 02:42:12;;;;;;;72.38;27.27;;;;;;;24.45;72.21;98189.91;4928757;29;20680;-64
2022/03/28 02:45:07;;;;;;;59.50;28.65;;;;;;;24.38;71.13;98191.47;4933497;29;20549;-63
2022/03/28 02:47:43;;;;;;;72.45;30.23;;;;;;;24.39;72.57;98190.50;4928102;29;20048;-63
2022/03/28 02:50:39;;;;;;;66.93;29.23;;;;;;;24.75;71.81;98196.69;4928820;29;20052;-63
2022/03/28 02:53:14;;;;;;;69.10;26.98;;;;;;;24.58;69.76;98203.59;4928601;29;20079;-64
2022/03/28 02:56:08;;;;;;;59.58;27.08;;;;;;;24.83;71.89;98203.84;4928926;29;20680;-64
2022/03/28 02:58:44;;;;;;;60.15;28.13;;;;;;;24.95;69.76;98202.72;4925835;29;20063;-64
2022/03/28 03:01:40;;;;;;;57.65;26.13;;;;;;;25.01;66.97;98197.69;4925672;29;20047;-64
2022/03/28 03:04:16;;;;;;;68.32;27.10;;;;;;;25.06;66.50;98202.53;4924132;29;20047;-64
2022/03/28 03:07:11;;;;;;;52.75;25.80;;;;;;;25.46;67.19;98208.19;4928702;29;20067;-63
2022/03/28 03:09:48;;;;;;;53.47;23.98;;;;;;;25.53;63.63;98214.53;4926854;29;20059;-64
2022/03/28 03:12:43;;;;;;;59.08;24.05;;;;;;;25.45;62.72;98208.34;4927030;29;20055;-64
2022/03/28 03:15:20;;;;;;;64.63;22.88;;;;;;;25.57;61.72;98211.56;4928695;29;20856;-64
2022/03/28 03:18:07;;;;;;;56.00;22.25;;;;;;;25.76;62.88;98214.09;4927502;29;20070;-63
2022/03/28 03:20:49;;;;;;;58.42;23.88;;;;;;;25.86;60.26;98220.91;4925901;28;20044;-63
2022/03/28 03:23:44;;;;;;;54.42;22.27;;;;;;;26.08;62.12;98230.16;4928500;29;20051;-64
2022/03/28 03:26:20;;;;;;;67.35;23.17;;;;;;;26.11;59.25;98229.84;4927153;29;20055;-64
2022/03/28 03:29:09;;;;;;;59.42;22.92;;;;;;;26.37;59.24;98231.69;4933094;29;20443;-65
2022/03/28 03:31:58;;;;;;;65.65;22.60;;;;;;;26.50;61.84;98227.63;4929066;29;20055;-64
2022/03/28 03:34:40;;;;;;;50.38;21.95;;;;;;;26.66;60.61;98226.88;4929824;28;20079;-64
2022/03/28 03:37:29;;;;;;;51.90;22.05;;;;;;;26.74;61.56;98229.56;4926966;29;20447;-64
2022/03/28 03:40:14;;;;;;;47.75;21.33;;;;;;;26.81;56.17;98238.53;4933020;29;20475;-64
2022/03/28 03:43:03;;;;;;;47.63;21.33;;;;;;;26.84;56.45;98237.34;4931411;29;20063;-64
2022/03/28 03:45:45;;;;;;;58.53;22.83;;;;;;;27.09;57.36;98244.44;4928046;29;20055;-64
2022/03/28 03:48:34;;;;;;;57.88;23.17;;;;;;;27.28;55.98;98249.44;4901081;29;20527;-63
2022/03/28 03:51:23;;;;;;;56.35;21.45;;;;;;;27.50;57.64;98245.34;4926678;29;20052;-64
2022/03/28 03:54:12;;;;;;;52.88;20.67;;;;;;;27.73;57.53;98246.38;4928410;29;20063;-64
2022/03/28 03:57:01;;;;;;;50.22;19.58;;;;;;;27.80;54.94;98247.38;4908205;29;20643;-64
2022/03/28 03:59:43;;;;;;;47.75;18.58;;;;;;;28.05;54.63;98245.56;4927564;29;20058;-64
2022/03/28 04:02:32;;;;;;;62.67;20.55;;;;;;;28.33;56.51;98245.22;4926317;29;20048;-64
2022/03/28 04:05:14;;;;;;;42.10;18.83;;;;;;;28.28;52.36;98252.84;4927295;29;20066;-65
2022/03/28 04:08:06;;;;;;;40.00;17.65;;;;;;;28.48;51.65;98257.63;4929823;29;20114;-64
2022/03/28 04:10:48;;;;;;;41.60;17.35;;;;;;;28.76;50.29;98254.56;4926152;29;20044;-64
2022/03/28 04:13:37;;;;;;;53.22;17.60;;;;;;;29.02;50.79;98249.81;4896574;29;20056;-64
2022/03/28 04:16:19;;;;;;;45.88;17.50;;;;;;;29.05;49.27;98251.31;4933106;29;20066;-65
2022/03/28 04:19:08;;;;;;;46.13;16.65;;;;;;;29.53;49.21;98258.19;4931362;29;20534;-65
2022/03/28 04:21:50;;;;;;;48.78;19.13;;;;;;;30.08;51.30;98251.81;4930457;28;20364;-65
2022/03/28 04:24:39;;;;;;;57.67;16.88;;;;;;;30.11;47.35;98268.22;4933698;29;20059;-64
2022/03/28 04:27:28;;;;;;;45.17;16.20;;;;;;;30.11;45.45;98264.72;4931940;29;20059;-65
2022/03/28 04:30:23;;;;;;;39.95;15.98;;;;;;;30.35;44.63;98264.50;4929829;29;20067;-63
2022/03/28 04:32:58;;;;;;;47.10;15.27;;;;;;;30.71;46.39;98262.81;4915425;29;20055;-64
2022/03/28 04:35:47;;;;;;;41.42;15.23;;;;;;;31.17;45.28;98254.63;4934481;29;20052;-64
2022/03/28 04:38:30;;;;;;;43.00;17.20;;;;;;;31.37;45.85;98253.00;4928541;29;20039;-65
2022/03/28 04:41:18;;;;;;;56.53;16.38;;;;;;;31.62;43.89;98250.00;4928839;29;20056;-65
2022/03/28 04:44:00;;;;;;;54.15;18.45;;;;;;;31.26;43.60;98248.19;4913828;29;20043;-65
2022/03/28 04:46:49;;;;;;;35.67;15.75;;;;;;;31.40;42.85;98249.97;4929433;29;20138;-65
2022/03/28 04:49:32;;;;;;;40.65;14.75;;;;;;;31.90;43.39;98251.72;4928676;29;20058;-66
2022/03/28 04:52:21;;;;;;;45.80;14.02;;;;;;;32.52;44.02;98245.63;4930366;29;20048;-66
2022/03/28 04:55:02;;;;;;;39.67;13.60;;;;;;;32.04;39.88;98257.97;4931172;29;20718;-66
2022/03/28 04:57:51;;;;;;;46.67;15.48;;;;;;;32.27;41.47;98242.59;4928530;29;20135;-66
2022/03/28 05:00:33;;;;;;;41.55;13.85;;;;;;;33.13;45.05;98244.91;4930011;29;20106;-65
2022/03/28 05:03:22;;;;;;;49.20;15.07;;;;;;;33.44;42.85;98250.63;4929415;29;20075;-66
2022/03/28 05:06:04;;;;;;;69.72;17.45;;;;;;;33.58;38.67;98246.94;4932070;29;20051;-66
2022/03/28 05:08:54;;;;;;;78.57;17.75;;;;;;;33.85;40.50;98257.66;4936213;29;20062;-66
2022/03/28 05:11:42;;;;;;;88.70;18.60;;;;;;;34.02;38.27;98256.25;4929941;29;20123;-66
2022/03/28 05:14:31;;;;;;;57.97;14.38;;;;;;;34.16;40.60;98256.03;4930432;29;20110;-66
2022/03/28 05:17:15;;;;;;;38.72;11.52;;;;;;;33.35;37.34;98260.66;4931716;29;20083;-66
2022/03/28 05:20:11;;;;;;;36.35;12.32;;;;;;;33.86;38.67;98253.97;4934791;28;20051;-66
2022/03/28 05:22:59;;;;;;;47.20;12.63;;;;;;;33.89;39.46;98248.22;4912239;29;20044;-63
2022/03/28 05:25:48;;;;;;;30.05;11.15;;;;;;;34.00;36.68;98250.28;4924330;29;20185;-67
2022/03/28 05:28:30;;;;;;;32.05;10.57;;;;;;;34.01;36.67;98249.25;4929289;29;20050;-66
2022/03/28 05:31:19;;;;;;;32.53;11.10;;;;;;;33.73;35.92;98246.78;4931215;29;20048;-66
2022/03/28 05:34:01;;;;;;;36.08;11.70;;;;;;;33.36;36.06;98242.78;4923199;29;20097;-67
2022/03/28 05:36:51;;;;;;;29.65;10.13;;;;;;;33.88;36.66;98246.56;4926885;29;20368;-67
2022/03/28 05:39:34;;;;;;;33.30;10.90;;;;;;;34.63;38.41;98243.44;4927838;29;20055;-66
2022/03/28 05:42:23;;;;;;;32.70;11.23;;;;;;;34.23;36.41;98240.03;4926169;29;20051;-66
2022/03/28 05:45:06;;;;;;;31.25;9.82;;;;;;;34.25;36.44;98235.28;4928746;29;20079;-66
2022/03/28 05:47:54;;;;;;;26.70;9.43;;;;;;;34.63;35.37;98237.28;4932430;29;20106;-67
2022/03/28 05:50:36;;;;;;;38.45;10.88;;;;;;;34.31;34.75;98237.13;4927720;29;20139;-65
2022/03/28 05:53:25;;;;;;;23.63;9.90;;;;;;;34.92;40.04;98234.94;4911547;29;20049;-66
2022/03/28 05:56:07;;;;;;;35.45;10.52;;;;;;;35.03;37.35;98230.78;4929870;29;20052;-68
2022/03/28 05:58:56;;;;;;;30.15;10.18;;;;;;;34.96;36.59;98229.97;4924231;29;20047;-65
2022/03/28 06:01:38;;;;;;;27.73;9.77;;;;;;;34.73;34.87;98233.13;4927677;29;20134;-66
2022/03/28 06:04:28;;;;;;;32.72;11.10;;;;;;;34.96;34.63;98234.53;4908829;29;20040;-68
2022/03/28 06:07:09;;;;;;;29.92;9.10;;;;;;;34.97;33.99;98234.28;4926865;29;20051;-66
2022/03/28 06:09:58;;;;;;;35.65;8.80;;;;;;;35.20;34.43;98225.75;4910876;29;20731;-67
2022/03/28 06:12:40;;;;;;;24.95;8.63;;;;;;;34.93;34.60;98225.03;4927888;29;20056;-68
2022/03/28 06:15:32;;;;;;;27.88;9.07;;;;;;;34.30;34.19;98224.78;4925644;29;20067;-67
2022/03/28 06:18:14;;;;;;;33.45;9.00;;;;;;;34.87;35.23;98225.91;4926837;29;20066;-66
2022/03/28 06:21:10;;;;;;;34.50;9.45;;;;;;;34.84;33.94;98226.31;4923831;29;20054;-67
2022/03/28 06:24:03;;;;;;;24.50;9.27;;;;;;;35.29;34.55;98222.63;4928158;29;20314;-66
2022/03/28 06:26:52;;;;;;;24.05;7.90;;;;;;;35.39;35.03;98215.97;4927600;29;20082;-66
2022/03/28 06:29:35;;;;;;;32.45;8.80;;;;;;;35.05;31.99;98220.66;4929818;29;20070;-66
2022/03/28 06:32:24;;;;;;;30.85;9.35;;;;;;;35.15;33.96;98212.97;4925702;29;20150;-66
2022/03/28 06:35:07;;;;;;;33.63;8.45;;;;;;;34.50;33.78;98214.84;4928820;29;20048;-67
2022/03/28 06:37:56;;;;;;;23.00;7.07;;;;;;;34.82;33.24;98220.34;4926934;29;20059;-66
2022/03/28 06:40:38;;;;;;;27.25;8.40;;;;;;;34.81;33.08;98216.84;4928671;29;20051;-66
2022/03/28 06:43:29;;;;;;;31.23;8.98;;;;;;;34.82;32.83;98214.97;4928707;29;20115;-66
2022/03/28 06:46:11;;;;;;;31.20;8.15;;;;;;;34.97;37.16;98204.00;4929100;29;20122;-65
2022/03/28 06:49:00;;;;;;;32.22;7.95;;;;;;;34.91;34.03;98211.84;4929420;29;20114;-65
2022/03/28 06:51:49;;;;;;;35.88;8.52;;;;;;;34.87;35.13;98204.47;4926648;29;20535;-66
2022/03/28 06:54:39;;;;;;;30.55;8.35;;;;;;;34.93;33.75;98203.63;4928856;29;20060;-66
2022/03/28 06:57:21;;;;;;;31.35;8.05;;;;;;;35.00;33.31;98198.22;4927641;29;20060;-66
2022/03/28 07:00:13;;;;;;;29.60;7.90;;;;;;;35.12;33.37;98201.88;4925343;29;20622;-66
2022/03/28 07:02:55;;;;;;;26.60;7.50;;;;;;;34.92;32.86;98194.75;4928665;29;20047;-66
2022/03/28 07:05:44;;;;;;;27.23;8.25;;;;;;;34.68;31.98;98195.44;4926977;29;20063;-66
2022/03/28 07:08:26;;;;;;;30.60;8.40;;;;;;;34.72;33.61;98195.84;4930242;29;20154;-66
2022/03/28 07:11:15;;;;;;;34.10;8.88;;;;;;;34.91;32.81;98184.25;4928071;29;20058;-66
2022/03/28 07:14:10;;;;;;;25.15;8.38;;;;;;;34.80;31.74;98184.94;4928268;29;20047;-66
2022/03/28 07:16:45;;;;;;;29.83;7.65;;;;;;;34.69;31.65;98174.84;4926700;29;20520;-66
2022/03/28 07:19:34;;;;;;;28.65;7.28;;;;;;;34.84;31.47;98176.25;4926560;29;20602;-66
2022/03/28 07:22:15;;;;;;;24.63;7.95;;;;;;;34.70;33.57;98166.63;4910599;29;20454;-66
2022/03/28 07:25:11;;;;;;;29.88;8.20;;;;;;;34.83;33.51;98163.09;4943609;29;20062;-66
2022/03/28 07:27:47;;;;;;;30.90;8.38;;;;;;;34.92;33.62;98153.78;4929446;29;20492;-67
2022/03/28 07:30:43;;;;;;;29.85;9.05;;;;;;;34.87;32.87;98158.97;4927481;29;20051;-66
2022/03/28 07:33:18;;;;;;;39.88;8.55;;;;;;;34.41;30.97;98153.75;4926082;29;20122;-66
2022/03/28 07:36:08;;;;;;;32.75;7.65;;;;;;;35.00;33.71;98150.84;4927521;29;20380;-66
2022/03/28 07:38:57;;;;;;;32.78;7.95;;;;;;;35.16;32.79;98147.66;4928093;29;20134;-67
2022/03/28 07:41:47;;;;;;;33.72;8.18;;;;;;;34.80;32.45;98150.94;4924925;29;20130;-66
2022/03/28 07:44:36;;;;;;;34.50;8.25;;;;;;;34.91;34.42;98144.09;4924774;29;20055;-67
2022/03/28 07:47:18;;;;;;;24.55;7.82;;;;;;;34.62;32.62;98147.28;4928035;29;20051;-67
2022/03/28 07:50:07;;;;;;;30.40;8.45;;;;;;;34.49;31.05;98148.97;4928545;29;20052;-67
2022/03/28 07:52:52;;;;;;;28.67;7.95;;;;;;;34.52;31.78;98142.38;4923771;29;20063;-66
2022/03/28 07:55:41;;;;;;;34.67;8.52;;;;;;;34.75;33.30;98125.84;4927930;29;20071;-66
2022/03/28 07:58:23;;;;;;;41.33;7.57;;;;;;;34.74;31.04;98118.84;4927731;29;20543;-67
2022/03/28 08:01:12;;;;;;;27.88;8.10;;;;;;;34.73;31.43;98119.88;4926222;29;20365;-66
2022/03/28 08:03:54;;;;;;;45.40;8.73;;;;;;;34.54;32.65;98114.38;4927551;29;20062;-66
2022/03/28 08:06:43;;;;;;;33.22;7.93;;;;;;;34.70;32.69;98109.59;4927753;29;20054;-67
2022/03/28 08:09:25;;;;;;;36.47;8.93;;;;;;;34.63;30.95;98108.78;4926815;29;20048;-66
2022/03/28 08:12:15;;;;;;;31.02;7.32;;;;;;;34.56;30.68;98109.63;4927342;29;20075;-66
2022/03/28 08:14:56;;;;;;;28.35;6.82;;;;;;;34.66;31.64;98092.28;4930531;29;20372;-67
2022/03/28 08:17:44;;;;;;;20.60;6.90;;;;;;;34.82;33.68;98089.16;4928963;29;20115;-66
2022/03/28 08:20:39;;;;;;;26.58;7.18;;;;;;;34.82;32.75;98089.97;4929443;29;20558;-66
2022/03/28 08:23:27;;;;;;;34.40;7.18;;;;;;;34.67;30.90;98085.91;4930386;29;20148;-66
2022/03/28 08:26:16;;;;;;;28.20;6.95;;;;;;;34.56;30.03;98080.19;4929503;29;20059;-66
2022/03/28 08:28:58;;;;;;;32.30;7.25;;;;;;;34.43;29.83;98069.56;4913016;29;20048;-68
2022/03/28 08:31:48;;;;;;;27.58;6.90;;;;;;;34.50;31.40;98065.00;4929637;29;20056;-66
2022/03/28 08:34:30;;;;;;;35.58;8.98;;;;;;;34.42;29.49;98069.75;4929491;29;20151;-66
2022/03/28 08:37:19;;;;;;;25.42;6.70;;;;;;;34.46;30.85;98060.28;4929873;29;20048;-67
2022/03/28 08:40:01;;;;;;;28.33;7.95;;;;;;;34.47;31.31;98057.41;4932769;29;20051;-66
2022/03/28 08:42:51;;;;;;;25.58;7.63;;;;;;;34.47;31.25;98049.38;4930680;29;20051;-64
2022/03/28 08:45:27;;;;;;;22.77;7.32;;;;;;;34.44;31.98;98041.78;4930190;29;20048;-67
2022/03/28 08:48:17;;;;;;;25.65;7.28;;;;;;;34.38;31.87;98050.66;4930042;29;20487;-67
2022/03/28 08:50:58;;;;;;;26.38;7.35;;;;;;;34.34;33.54;98044.06;4913257;29;20475;-67
2022/03/28 08:53:47;;;;;;;26.85;7.95;;;;;;;34.31;32.30;98038.34;4929254;29;20095;-66
2022/03/28 08:56:36;;;;;;;33.60;8.18;;;;;;;34.14;33.19;98027.28;4933527;29;20595;-67
2022/03/28 08:59:25;;;;;;;31.08;8.05;;;;;;;34.20;33.04;98029.09;4928085;29;20218;-66
2022/03/28 09:02:06;;;;;;;27.08;7.18;;;;;;;34.27;35.00;98021.88;4930072;29;20246;-67
2022/03/28 09:04:55;;;;;;;45.28;8.25;;;;;;;34.31;32.07;98019.63;4931079;29;20052;-66
2022/03/28 09:07:37;;;;;;;35.08;8.32;;;;;;;34.25;35.10;98012.44;4927962;29;20480;-67
2022/03/28 09:10:35;;;;;;;29.77;8.27;;;;;;;34.33;33.01;98010.31;4914797;29;20052;-66
2022/03/28 09:13:24;;;;;;;31.05;7.43;;;;;;;34.15;32.75;98016.38;4928833;29;20066;-67
2022/03/28 09:16:07;;;;;;;37.08;7.70;;;;;;;34.17;33.89;98008.94;4929155;29;20367;-67
2022/03/28 09:19:02;;;;;;;39.50;8.07;;;;;;;33.99;33.20;98002.66;4929579;29;20051;-67
2022/03/28 09:21:38;;;;;;;27.48;7.90;;;;;;;33.99;32.97;97991.97;4902743;29;20107;-67
2022/03/28 09:24:37;;;;;;;29.60;7.57;;;;;;;34.05;31.82;97999.13;4909815;29;20119;-64
2022/03/28 09:27:21;;;;;;;37.72;7.90;;;;;;;34.06;34.75;97988.22;4893318;29;20048;-66
2022/03/28 09:30:16;;;;;;;30.08;6.40;;;;;;;34.10;33.17;97984.06;4904671;29;20064;-68
2022/03/28 09:33:01;;;;;;;40.92;9.48;;;;;;;34.12;32.63;97975.84;4909690;29;20087;-67
2022/03/28 09:35:50;;;;;;;35.22;8.70;;;;;;;34.25;32.78;97981.16;4909327;29;20126;-66
2022/03/28 09:38:31;;;;;;;37.38;8.98;;;;;;;34.14;33.21;97979.13;4892044;29;20044;-67
2022/03/28 09:41:30;;;;;;;21.45;7.30;;;;;;;34.13;33.34;97974.81;4906412;29;20052;-67
2022/03/28 09:44:07;;;;;;;35.35;7.35;;;;;;;34.12;32.29;97965.16;4910277;29;20048;-67
2022/03/28 09:47:09;;;;;;;29.80;6.88;;;;;;;34.03;33.84;97961.91;4904213;29;20333;-67
2022/03/28 09:49:52;;;;;;;43.90;7.15;;;;;;;34.12;34.55;97963.28;4909421;29;20060;-66
2022/03/28 09:52:44;;;;;;;33.67;7.43;;;;;;;34.04;34.29;97962.72;4907639;29;20056;-66
2022/03/28 09:55:25;;;;;;;30.92;6.72;;;;;;;34.04;32.50;97952.84;4908894;29;20059;-66
2022/03/28 09:58:48;;;;;;;22.52;6.90;;;;;;;33.92;35.29;97948.38;4908830;29;20131;-66
2022/03/28 10:01:35;;;;;;;42.40;9.13;;;;;;;33.92;33.32;97956.41;4905410;29;20122;-66
2022/03/28 10:04:34;;;;;;;34.38;7.63;;;;;;;33.82;32.64;97958.72;4909070;29;20040;-66
2022/03/28 10:07:24;;;;;;;26.20;7.97;;;;;;;33.67;35.44;97946.41;4907216;29;20052;-67
2022/03/28 10:10:07;;;;;;;41.75;8.15;;;;;;;33.72;34.05;97951.94;4911549;29;20476;-66
2022/03/28 10:12:56;;;;;;;25.98;6.55;;;;;;;33.83;33.04;97949.66;4911104;29;20059;-67
2022/03/28 10:15:39;;;;;;;26.45;6.72;;;;;;;33.76;33.70;97953.16;4911802;29;20159;-66
2022/03/28 10:18:27;;;;;;;23.05;7.18;;;;;;;33.67;34.80;97942.91;4909949;29;20119;-66
2022/03/28 10:21:20;;;;;;;29.25;6.95;;;;;;;33.71;34.91;97949.44;4910981;29;20107;-66
2022/03/28 10:24:29;;;;;;;18.25;7.28;;;;;;;33.82;34.52;97940.00;4927055;29;20099;-64
2022/03/28 10:27:05;;;;;;;25.10;6.90;;;;;;;33.67;35.55;97938.38;4925139;29;20056;-64
2022/03/28 10:29:53;;;;;;;22.30;6.90;;;;;;;33.60;34.34;97934.91;4928235;29;20055;-64
2022/03/28 10:32:35;;;;;;;27.52;7.00;;;;;;;33.58;37.97;97936.16;4928288;29;20051;-64
2022/03/28 10:35:24;;;;;;;25.33;6.78;;;;;;;33.54;35.08;97934.91;4927383;29;20150;-65
2022/03/28 10:38:25;;;;;;;28.35;6.50;;;;;;;33.47;35.70;97937.59;4929269;29;20183;-65
2022/03/28 10:41:18;;;;;;;28.92;6.82;;;;;;;33.42;37.31;97932.91;4914316;29;20626;-65
2022/03/28 10:44:09;;;;;;;26.20;7.47;;;;;;;33.39;37.15;97932.50;4927879;29;20506;-65
2022/03/28 10:47:14;;;;;;;22.55;6.45;;;;;;;33.32;36.70;97931.69;4928595;29;20098;-65
2022/03/28 10:49:54;;;;;;;24.42;6.93;;;;;;;33.44;35.24;97940.72;4928308;29;20142;-66
2022/03/28 10:53:02;;;;;;;26.17;6.75;;;;;;;33.30;36.81;97926.53;4927045;29;20063;-67
2022/03/28 10:55:50;;;;;;;36.40;6.63;;;;;;;33.23;37.59;97930.25;4927377;29;20162;-67
2022/03/28 10:58:52;;;;;;;38.10;7.30;;;;;;;33.32;35.78;97926.34;4925001;29;20546;-66
2022/03/28 11:01:35;;;;;;;25.25;7.10;;;;;;;33.13;37.66;97932.50;4928816;29;20443;-65
2022/03/28 11:04:24;;;;;;;36.90;7.28;;;;;;;33.25;35.32;97928.22;4927488;29;20055;-66
2022/03/28 11:07:13;;;;;;;25.90;7.38;;;;;;;33.30;35.25;97933.75;4926511;29;20047;-65
2022/03/28 11:10:13;;;;;;;34.53;7.43;;;;;;;33.24;35.17;97921.22;4927981;29;20055;-66
2022/03/28 11:13:21;;;;;;;25.25;8.10;;;;;;;33.13;37.79;97919.16;4889985;29;20058;-66
2022/03/28 11:16:03;;;;;;;38.00;8.07;;;;;;;33.06;38.08;97920.00;4927231;29;20043;-66
2022/03/28 11:19:31;;;;;;;30.40;8.25;;;;;;;33.03;36.35;97912.41;4926999;29;20047;-64
2022/03/28 11:22:13;;;;;;;32.05;7.07;;;;;;;33.05;36.67;97912.19;4925288;29;20048;-65
2022/03/28 11:25:02;;;;;;;32.50;7.35;;;;;;;33.03;37.55;97911.59;4925264;29;20619;-66
2022/03/28 11:27:44;;;;;;;24.40;6.80;;;;;;;32.98;36.78;97904.19;4927247;29;20111;-65
2022/03/28 11:30:35;;;;;;;23.40;6.68;;;;;;;32.85;38.43;97904.22;4926047;29;20114;-65
2022/03/28 11:33:51;;;;;;;32.70;7.72;;;;;;;32.89;38.24;97905.41;4925166;29;20055;-65
2022/03/28 11:36:41;;;;;;;27.10;7.20;;;;;;;33.08;36.94;97897.59;4926026;29;20423;-65
2022/03/28 11:39:25;;;;;;;78.38;28.88;;;;;;;32.98;37.17;97901.50;4927081;29;20047;-65
2022/03/28 11:42:15;;;;;;;76.05;30.55;;;;;;;32.84;38.16;97897.22;4926637;29;20047;-65
2022/03/28 11:45:05;;;;;;;41.00;10.80;;;;;;;32.90;38.50;97901.72;4927434;29;20103;-65
2022/03/28 11:48:02;;;;;;;50.38;12.90;;;;;;;32.75;40.23;97898.47;4927165;29;20428;-66
2022/03/28 11:50:53;;;;;;;33.33;10.02;;;;;;;32.56;39.88;97899.25;4927014;29;20074;-65
2022/03/28 11:53:35;;;;;;;33.20;9.88;;;;;;;32.56;38.82;97896.59;4927444;29;20348;-65
2022/03/28 11:56:29;;;;;;;25.17;9.75;;;;;;;32.28;45.02;97892.25;4925791;29;20055;-65
2022/03/28 11:59:13;;;;;;;40.10;8.52;;;;;;;32.48;37.70;97891.47;4926292;29;20103;-65
2022/03/28 12:02:06;;;;;;;36.13;7.60;;;;;;;32.26;41.61;97893.47;4924120;29;20055;-66
2022/03/28 12:04:52;;;;;;;33.28;8.43;;;;;;;32.09;43.11;97893.00;4911409;29;20074;-66
2022/03/28 12:07:47;;;;;;;35.67;8.63;;;;;;;32.07;40.88;97899.56;4924876;29;20047;-65
2022/03/28 12:10:25;;;;;;;37.63;7.65;;;;;;;31.96;44.33;97894.81;4925331;29;20063;-65
2022/03/28 12:13:13;;;;;;;39.28;8.35;;;;;;;31.79;44.47;97886.34;4927095;29;20142;-65
2022/03/28 12:16:02;;;;;;;36.42;7.65;;;;;;;31.70;44.03;97888.38;4927960;29;20044;-66
2022/03/28 12:18:45;;;;;;;36.45;8.13;;;;;;;31.72;41.85;97888.19;4927524;29;20055;-65
2022/03/28 12:21:34;;;;;;;31.08;8.05;;;;;;;31.75;42.02;97890.47;4926669;29;20040;-66
2022/03/28 12:24:17;;;;;;;32.05;8.13;;;;;;;31.67;43.00;97890.63;4929001;29;20044;-65
2022/03/28 12:27:04;;;;;;;38.03;7.65;;;;;;;31.64;42.08;97888.34;4927549;29;20066;-66
2022/03/28 12:29:46;;;;;;;21.60;7.22;;;;;;;31.56;42.11;97898.13;4926775;29;20044;-65
2022/03/28 12:32:34;;;;;;;34.22;8.85;;;;;;;31.43;42.84;97892.75;4926234;29;20495;-66
2022/03/28 12:35:19;;;;;;;30.77;7.90;;;;;;;31.32;43.00;97887.97;4924896;29;20503;-65
2022/03/28 12:38:11;;;;;;;40.03;8.30;;;;;;;31.42;41.63;97900.94;4928187;29;20562;-65
2022/03/28 12:40:54;;;;;;;28.75;7.72;;;;;;;31.32;42.80;97895.97;4927938;29;20051;-65
2022/03/28 12:43:45;;;;;;;44.13;9.73;;;;;;;31.15;44.07;97898.13;4927372;29;20154;-66
2022/03/28 12:46:29;;;;;;;32.40;9.02;;;;;;;31.11;43.51;97899.53;4930344;29;20146;-65
2022/03/28 12:49:22;;;;;;;35.88;8.77;;;;;;;31.18;43.29;97899.56;4928137;29;20062;-65
2022/03/28 12:52:09;;;;;;;32.85;8.80;;;;;;;31.02;44.99;97895.34;4927824;29;20044;-65
2022/03/28 12:55:04;;;;;;;43.88;9.98;;;;;;;30.84;46.13;97896.84;4924882;29;20056;-65